Time;durP1;ratioP1;P1;durP2;ratioP2;P2;SDS_P1;SDS_P2;PMS_P1;PMS_P2;Temp;Humidity;BMP_temperature;BMP_pressure;BME280_temperature;BME280_humidity;BME280_pressure;Samples;Min_cycle;Max_cycle;Signal;HPM_P1;HPM_P2
2023/01/26 00:00:43;;;;;;;10.15;2.13;;;;;;;;;;5056751;28;20024;-69
2023/01/26 00:03:09;;;;;;;12.43;1.92;;;;;;;;;;5074150;28;20413;-69
2023/01/26 00:05:38;;;;;;;8.18;1.85;;;;;;;;;;5080848;28;20028;-63
2023/01/26 00:08:04;;;;;;;14.77;2.40;;;;;;;;;;5057346;28;20041;-63
2023/01/26 00:10:30;;;;;;;6.70;1.95;;;;;;;;;;5068967;28;20565;-63
2023/01/26 00:12:57;;;;;;;11.68;2.00;;;;;;;;;;5058466;28;20409;-63
2023/01/26 00:15:23;;;;;;;16.08;2.30;;;;;;;;;;5063000;28;20111;-63
2023/01/26 00:17:50;;;;;;;10.90;2.78;;;;;;;;;;5065343;28;20166;-63
2023/01/26 00:20:16;;;;;;;11.35;2.30;;;;;;;;;;5071744;28;20077;-63
2023/01/26 00:22:43;;;;;;;13.70;2.50;;;;;;;;;;5055785;28;20028;-63
2023/01/26 00:25:09;;;;;;;9.75;2.60;;;;;;;;;;5065313;28;20555;-63
2023/01/26 00:27:35;;;;;;;10.23;2.33;;;;;;;;;;5062822;28;20036;-63
2023/01/26 00:30:01;;;;;;;10.68;2.30;;;;;;;;;;5056817;28;20032;-63
2023/01/26 00:32:27;;;;;;;10.77;2.33;;;;;;;;;;5068090;28;20060;-63
2023/01/26 00:34:53;;;;;;;14.32;2.42;;;;;;;;;;5055559;28;20025;-63
2023/01/26 00:37:19;;;;;;;19.55;2.30;;;;;;;;;;5063525;28;20498;-63
2023/01/26 00:39:46;;;;;;;14.43;2.42;;;;;;;;;;5064132;28;20035;-63
2023/01/26 00:42:12;;;;;;;11.52;2.35;;;;;;;;;;5056522;28;20033;-63
2023/01/26 00:44:42;;;;;;;14.00;2.30;;;;;;;;;;5068259;28;20060;-63
2023/01/26 00:47:09;;;;;;;20.55;3.35;;;;;;;;;;5058468;28;20024;-63
2023/01/26 00:49:35;;;;;;;13.90;2.22;;;;;;;;;;5061433;28;20091;-63
2023/01/26 00:52:02;;;;;;;9.20;2.78;;;;;;;;;;5065990;28;20024;-63
2023/01/26 00:54:29;;;;;;;10.23;1.70;;;;;;;;;;5055059;28;20112;-63
2023/01/26 00:56:55;;;;;;;10.85;2.55;;;;;;;;;;5065926;28;20029;-64
2023/01/26 00:59:22;;;;;;;14.48;2.60;;;;;;;;;;5059982;28;20017;-64
2023/01/26 01:01:48;;;;;;;20.23;3.50;;;;;;;;;;5059737;28;20089;-64
2023/01/26 01:04:14;;;;;;;20.33;3.42;;;;;;;;;;5067256;28;20623;-64
2023/01/26 01:06:41;;;;;;;24.23;3.97;;;;;;;;;;5053541;28;20041;-64
2023/01/26 01:09:07;;;;;;;21.83;3.83;;;;;;;;;;5065698;28;20029;-64
2023/01/26 01:11:34;;;;;;;14.77;4.18;;;;;;;;;;5061294;28;20107;-64
2023/01/26 01:14:00;;;;;;;12.10;4.15;;;;;;;;;;5074328;28;20024;-64
2023/01/26 01:16:27;;;;;;;20.33;4.72;;;;;;;;;;5054990;28;20024;-64
2023/01/26 01:18:56;;;;;;;19.50;4.03;;;;;;;;;;5071175;28;20024;-64
2023/01/26 01:21:24;;;;;;;27.80;5.53;;;;;;;;;;5062207;28;20021;-64
2023/01/26 01:23:52;;;;;;;23.40;4.63;;;;;;;;;;5062447;28;20024;-64
2023/01/26 01:26:18;;;;;;;15.57;4.35;;;;;;;;;;5055942;28;20025;-64
2023/01/26 01:28:44;;;;;;;25.13;3.90;;;;;;;;;;5066234;28;20033;-64
2023/01/26 01:31:12;;;;;;;16.98;4.05;;;;;;;;;;5057819;28;20401;-64
2023/01/26 01:33:38;;;;;;;14.77;3.50;;;;;;;;;;5060164;28;20039;-64
2023/01/26 01:36:06;;;;;;;14.90;4.70;;;;;;;;;;5064809;28;20045;-64
2023/01/26 01:38:32;;;;;;;21.95;5.20;;;;;;;;;;5054598;28;20032;-64
2023/01/26 01:40:58;;;;;;;15.45;5.68;;;;;;;;;;5067096;28;20502;-64
2023/01/26 01:43:25;;;;;;;18.00;4.00;;;;;;;;;;5058922;28;20020;-64
2023/01/26 01:45:52;;;;;;;28.17;6.10;;;;;;;;;;5058603;28;20406;-64
2023/01/26 01:48:36;;;;;;;23.02;4.40;;;;;;;;;;5066628;28;20389;-64
2023/01/26 01:51:07;;;;;;;16.85;3.85;;;;;;;;;;5061113;28;20025;-64
2023/01/26 01:53:36;;;;;;;18.10;4.18;;;;;;;;;;5060806;28;20128;-64
2023/01/26 01:56:10;;;;;;;28.25;4.45;;;;;;;;;;5061986;28;20020;-64
2023/01/26 01:58:38;;;;;;;24.58;4.95;;;;;;;;;;5072251;28;20073;-64
2023/01/26 02:01:04;;;;;;;24.40;4.13;;;;;;;;;;5067883;28;20023;-64
2023/01/26 02:03:32;;;;;;;23.35;5.10;;;;;;;;;;5061837;28;20115;-64
2023/01/26 02:06:20;;;;;;;22.35;4.65;;;;;;;;;;5061625;28;20116;-64
2023/01/26 02:08:52;;;;;;;23.55;5.80;;;;;;;;;;5076762;28;20056;-64
2023/01/26 02:11:21;;;;;;;31.77;6.57;;;;;;;;;;5067301;28;20029;-64
2023/01/26 02:13:48;;;;;;;22.95;5.38;;;;;;;;;;5064057;28;20041;-64
2023/01/26 02:16:16;;;;;;;27.38;4.95;;;;;;;;;;5072559;28;20060;-64
2023/01/26 02:18:43;;;;;;;18.73;4.93;;;;;;;;;;5066191;28;20016;-64
2023/01/26 02:21:15;;;;;;;19.63;4.88;;;;;;;;;;5102086;28;20394;-64
2023/01/26 02:23:44;;;;;;;32.45;6.22;;;;;;;;;;5062590;28;20370;-64
2023/01/26 02:26:12;;;;;;;38.13;4.75;;;;;;;;;;5059929;28;20036;-64
2023/01/26 02:28:39;;;;;;;23.65;3.92;;;;;;;;;;5069266;28;20119;-63
2023/01/26 02:31:06;;;;;;;24.00;5.25;;;;;;;;;;5057552;28;20035;-63
2023/01/26 02:33:33;;;;;;;21.35;5.20;;;;;;;;;;5065114;28;20033;-63
2023/01/26 02:36:02;;;;;;;40.90;7.30;;;;;;;;;;5064840;28;20125;-63
2023/01/26 02:38:33;;;;;;;28.55;4.70;;;;;;;;;;5058930;28;20032;-63
2023/01/26 02:41:04;;;;;;;32.97;5.68;;;;;;;;;;5069014;28;20032;-64
2023/01/26 02:43:31;;;;;;;32.20;7.85;;;;;;;;;;5043855;28;20024;-63
2023/01/26 02:45:57;;;;;;;25.13;5.90;;;;;;;;;;5061696;28;20032;-63
2023/01/26 02:51:08;;;;;;;30.33;4.32;;;;;;;;;;5053293;28;20028;-61
2023/01/26 02:53:34;;;;;;;17.70;3.88;;;;;;;;;;5060483;28;20040;-60
2023/01/26 02:56:00;;;;;;;22.90;4.72;;;;;;;;;;5060855;28;20033;-63
2023/01/26 02:58:27;;;;;;;23.25;4.43;;;;;;;;;;5067615;28;20025;-61
2023/01/26 03:00:53;;;;;;;19.85;4.63;;;;;;;;;;5055716;28;20036;-60
2023/01/26 03:03:43;;;;;;;24.83;4.55;;;;;;;;;;5067248;28;20025;-61
2023/01/26 03:06:10;;;;;;;28.10;4.30;;;;;;;;;;5098662;28;20090;-61
2023/01/26 03:08:37;;;;;;;21.63;3.72;;;;;;;;;;5056224;28;20029;-61
2023/01/26 03:11:04;;;;;;;25.50;3.88;;;;;;;;;;5069733;28;20115;-61
2023/01/26 03:13:30;;;;;;;25.17;4.10;;;;;;;;;;5052367;28;20075;-61
2023/01/26 03:16:05;;;;;;;20.50;5.30;;;;;;;;;;5068710;28;20446;-60
2023/01/26 03:29:39;;;;;;;25.75;4.32;;;;;;;;;;5056482;28;20047;-61
2023/01/26 03:32:05;;;;;;;22.02;3.70;;;;;;;;;;5068352;28;20029;-61
2023/01/26 03:34:32;;;;;;;23.02;4.25;;;;;;;;;;5058741;28;20029;-61
2023/01/26 03:36:58;;;;;;;18.20;4.60;;;;;;;;;;5061358;28;20462;-60
2023/01/26 03:56:17;;;;;;;26.15;4.57;;;;;;;;;;5070517;28;20029;-60
2023/01/26 03:58:45;;;;;;;28.23;5.30;;;;;;;;;;5097419;28;20032;-61
2023/01/26 04:01:19;;;;;;;29.50;4.88;;;;;;;;;;5063315;28;20024;-60
2023/01/26 04:09:19;;;;;;;23.88;4.47;;;;;;;;;;5059773;28;20029;-61
2023/01/26 04:11:45;;;;;;;32.42;4.63;;;;;;;;;;5067499;28;20028;-61
2023/01/26 04:22:31;;;;;;;20.10;3.90;;;;;;;;;;5051317;28;20025;-63
2023/01/26 04:24:57;;;;;;;30.35;5.80;;;;;;;;;;5059828;28;20040;-63
2023/01/26 04:27:23;;;;;;;23.13;4.63;;;;;;;;;;5058236;28;20025;-63
2023/01/26 04:29:49;;;;;;;25.90;4.13;;;;;;;;;;5050615;28;20024;-63
2023/01/26 04:32:16;;;;;;;23.20;4.13;;;;;;;;;;5054332;28;20394;-63
2023/01/26 04:34:42;;;;;;;17.63;3.78;;;;;;;;;;5063993;28;20108;-63
2023/01/26 04:37:17;;;;;;;20.00;3.13;;;;;;;;;;5062195;28;20045;-63
2023/01/26 04:39:46;;;;;;;26.30;5.35;;;;;;;;;;5055148;28;20025;-63
2023/01/26 04:42:12;;;;;;;27.52;4.57;;;;;;;;;;5067001;28;20017;-63
2023/01/26 04:44:39;;;;;;;24.75;4.53;;;;;;;;;;5058296;28;20036;-63
2023/01/26 04:47:05;;;;;;;28.83;5.50;;;;;;;;;;5060671;28;20029;-63
2023/01/26 04:49:32;;;;;;;22.88;4.55;;;;;;;;;;5064367;28;20036;-63
2023/01/26 04:51:58;;;;;;;31.63;5.57;;;;;;;;;;5053397;28;20024;-63
2023/01/26 04:54:25;;;;;;;30.55;4.53;;;;;;;;;;5066270;28;20025;-63
2023/01/26 04:56:51;;;;;;;24.95;4.65;;;;;;;;;;5058629;28;20013;-63
2023/01/26 04:59:18;;;;;;;24.45;4.15;;;;;;;;;;5059071;28;20383;-63
2023/01/26 05:01:44;;;;;;;16.40;4.55;;;;;;;;;;5065833;28;20028;-63
2023/01/26 05:04:14;;;;;;;18.10;4.75;;;;;;;;;;5054799;28;20029;-63
2023/01/26 05:06:43;;;;;;;;;;;;;;;;;;5064034;28;20025;-63
2023/01/26 05:09:10;;;;;;;30.77;4.55;;;;;;;;;;5060561;28;19908;-63
2023/01/26 05:11:38;;;;;;;21.80;3.67;;;;;;;;;;5056576;28;20435;-63
2023/01/26 05:14:36;;;;;;;27.85;3.90;;;;;;;;;;5085182;28;20033;-63
2023/01/26 05:17:30;;;;;;;28.80;4.25;;;;;;;;;;5059198;28;20021;-63
2023/01/26 05:20:09;;;;;;;21.85;4.40;;;;;;;;;;5068090;28;20059;-63
2023/01/26 05:23:00;;;;;;;26.17;4.45;;;;;;;;;;5058882;28;20085;-63
2023/01/26 05:25:32;;;;;;;14.93;3.65;;;;;;;;;;5058897;28;20120;-62
2023/01/26 05:28:08;;;;;;;16.55;3.38;;;;;;;;;;5066433;28;20699;-63
2023/01/26 05:30:35;;;;;;;18.63;3.95;;;;;;;;;;5055284;28;20024;-63
2023/01/26 05:33:06;;;;;;;18.88;4.03;;;;;;;;;;5061511;28;20025;-63
2023/01/26 05:35:33;;;;;;;13.90;3.63;;;;;;;;;;5062930;28;20060;-62
2023/01/26 05:37:59;;;;;;;16.85;3.95;;;;;;;;;;5057688;28;20380;-63
2023/01/26 05:40:28;;;;;;;29.38;5.00;;;;;;;;;;5054561;28;20098;-63
2023/01/26 05:42:54;;;;;;;17.48;3.55;;;;;;;;;;5062945;28;20028;-62
2023/01/26 05:45:39;;;;;;;13.55;3.20;;;;;;;;;;5061979;28;20048;-63
2023/01/26 05:48:06;;;;;;;28.90;5.32;;;;;;;;;;5070382;28;20123;-63
2023/01/26 05:50:32;;;;;;;20.33;4.13;;;;;;;;;;5057959;28;20020;-62
2023/01/26 05:53:28;;;;;;;30.30;4.20;;;;;;;;;;5051967;28;20033;-63
2023/01/26 05:55:54;;;;;;;16.10;3.63;;;;;;;;;;5072870;28;20500;-62
2023/01/26 05:58:23;;;;;;;22.38;3.70;;;;;;;;;;5083620;28;20028;-62
2023/01/26 06:00:50;;;;;;;19.42;3.65;;;;;;;;;;5067334;28;20505;-62
2023/01/26 06:03:23;;;;;;;25.27;4.15;;;;;;;;;;5056659;28;20041;-63
2023/01/26 06:05:54;;;;;;;21.17;3.50;;;;;;;;;;5081465;28;20031;-63
2023/01/26 06:08:49;;;;;;;15.98;3.35;;;;;;;;;;5061530;28;20158;-62
2023/01/26 06:11:47;;;;;;;16.25;3.58;;;;;;;;;;5027854;28;20437;-62
2023/01/26 06:14:24;;;;;;;17.58;4.85;;;;;;;;;;5070592;28;20023;-62
2023/01/26 06:16:51;;;;;;;18.20;3.72;;;;;;;;;;5072325;28;20020;-63
2023/01/26 06:19:18;;;;;;;19.55;3.20;;;;;;;;;;5071699;28;20513;-62
2023/01/26 06:21:49;;;;;;;24.90;3.50;;;;;;;;;;5100905;28;20024;-62
2023/01/26 06:24:16;;;;;;;11.80;3.00;;;;;;;;;;5071940;28;20024;-62
2023/01/26 06:26:42;;;;;;;17.88;3.53;;;;;;;;;;5070316;28;20098;-63
2023/01/26 06:29:11;;;;;;;15.95;3.15;;;;;;;;;;5067947;28;20032;-63
2023/01/26 06:31:37;;;;;;;22.27;4.50;;;;;;;;;;5070175;28;20054;-62
2023/01/26 06:34:05;;;;;;;28.17;3.85;;;;;;;;;;5070934;28;20029;-63
2023/01/26 06:36:32;;;;;;;19.15;3.95;;;;;;;;;;5070352;28;20067;-63
2023/01/26 06:38:59;;;;;;;16.95;3.00;;;;;;;;;;5072992;28;20111;-63
2023/01/26 06:41:27;;;;;;;19.10;3.83;;;;;;;;;;5070783;28;20035;-62
2023/01/26 06:43:53;;;;;;;20.73;3.35;;;;;;;;;;5070190;28;20033;-62
2023/01/26 06:46:19;;;;;;;13.75;3.17;;;;;;;;;;5064591;28;20024;-62
2023/01/26 06:48:46;;;;;;;19.05;3.60;;;;;;;;;;5080388;28;20445;-62
2023/01/26 06:51:15;;;;;;;25.63;3.78;;;;;;;;;;5060235;28;20398;-62
2023/01/26 06:54:02;;;;;;;20.35;3.33;;;;;;;;;;5053617;28;20505;-62
2023/01/26 06:56:36;;;;;;;18.70;4.18;;;;;;;;;;5102910;28;20513;-62
2023/01/26 06:59:21;;;;;;;20.90;4.10;;;;;;;;;;5071240;28;20036;-62
2023/01/26 07:02:15;;;;;;;16.33;3.58;;;;;;;;;;5067604;28;20396;-62
2023/01/26 07:04:41;;;;;;;18.65;3.33;;;;;;;;;;5070935;28;20386;-62
2023/01/26 07:07:07;;;;;;;16.83;3.25;;;;;;;;;;5068810;28;20052;-62
2023/01/26 07:09:33;;;;;;;25.55;4.05;;;;;;;;;;5069376;28;20360;-62
2023/01/26 07:11:59;;;;;;;17.13;3.88;;;;;;;;;;5068315;28;20028;-62
2023/01/26 07:14:25;;;;;;;21.77;3.53;;;;;;;;;;5066181;28;20116;-63
2023/01/26 07:16:51;;;;;;;25.42;4.22;;;;;;;;;;5063124;28;20032;-62
2023/01/26 07:19:17;;;;;;;27.27;2.70;;;;;;;;;;5065657;28;20020;-60
2023/01/26 07:21:43;;;;;;;11.45;2.80;;;;;;;;;;5065339;28;20112;-59
2023/01/26 07:24:10;;;;;;;14.00;3.65;;;;;;;;;;5071582;28;20056;-60
2023/01/26 07:26:36;;;;;;;19.85;3.25;;;;;;;;;;5068319;28;20025;-59
2023/01/26 07:29:02;;;;;;;16.05;2.65;;;;;;;;;;5067744;28;20032;-60
2023/01/26 07:31:28;;;;;;;17.80;3.33;;;;;;;;;;5067537;28;20033;-60
2023/01/26 07:33:54;;;;;;;17.15;3.20;;;;;;;;;;5064053;28;20558;-60
2023/01/26 07:36:20;;;;;;;17.27;3.67;;;;;;;;;;5071442;28;20048;-59
2023/01/26 07:38:47;;;;;;;27.58;5.03;;;;;;;;;;5070362;28;20051;-59
2023/01/26 07:41:13;;;;;;;10.80;2.85;;;;;;;;;;5070489;28;20039;-60
2023/01/26 07:43:41;;;;;;;19.17;3.47;;;;;;;;;;5063646;28;20436;-59
2023/01/26 07:46:09;;;;;;;17.95;3.50;;;;;;;;;;5066486;28;20017;-59
2023/01/26 07:48:36;;;;;;;14.82;3.05;;;;;;;;;;5070204;28;20063;-59
2023/01/26 07:51:03;;;;;;;27.08;5.72;;;;;;;;;;5066591;28;20051;-59
2023/01/26 07:53:32;;;;;;;18.20;4.15;;;;;;;;;;5066345;28;20029;-59
2023/01/26 07:56:06;;;;;;;32.83;5.90;;;;;;;;;;5069692;28;20017;-60
2023/01/26 07:58:34;;;;;;;40.10;5.47;;;;;;;;;;5065456;28;20029;-59
2023/01/26 08:01:18;;;;;;;21.83;3.60;;;;;;;;;;5074543;28;20019;-60
2023/01/26 08:03:44;;;;;;;19.67;3.78;;;;;;;;;;5064063;28;20077;-60
2023/01/26 08:06:11;;;;;;;11.63;3.05;;;;;;;;;;5062447;28;20386;-59
2023/01/26 08:08:40;;;;;;;19.83;3.22;;;;;;;;;;5063484;28;20029;-59
2023/01/26 08:11:07;;;;;;;17.55;3.50;;;;;;;;;;5054577;28;20029;-60
2023/01/26 08:13:33;;;;;;;23.98;3.65;;;;;;;;;;5069697;28;20032;-60
2023/01/26 08:16:00;;;;;;;17.98;3.10;;;;;;;;;;5068673;28;20056;-60
2023/01/26 08:18:26;;;;;;;13.77;2.67;;;;;;;;;;5059815;28;20031;-60
2023/01/26 08:20:53;;;;;;;13.77;3.60;;;;;;;;;;5063219;28;20055;-60
2023/01/26 08:23:19;;;;;;;13.38;2.65;;;;;;;;;;5063152;28;20425;-60
2023/01/26 08:25:45;;;;;;;19.17;2.75;;;;;;;;;;5059618;28;20036;-60
2023/01/26 08:28:11;;;;;;;11.63;2.80;;;;;;;;;;5067176;28;20028;-60
2023/01/26 08:30:38;;;;;;;20.08;3.13;;;;;;;;;;5063291;28;20036;-60
2023/01/26 08:33:04;;;;;;;14.10;2.47;;;;;;;;;;5065152;28;20051;-59
2023/01/26 08:35:31;;;;;;;17.70;3.45;;;;;;;;;;5070632;28;20501;-60
2023/01/26 08:37:57;;;;;;;22.38;3.58;;;;;;;;;;5059880;28;20040;-60
2023/01/26 08:40:23;;;;;;;18.23;3.38;;;;;;;;;;5067225;28;20131;-60
2023/01/26 08:42:50;;;;;;;17.80;3.67;;;;;;;;;;5061303;28;20386;-59
2023/01/26 08:45:16;;;;;;;14.52;2.80;;;;;;;;;;5059386;28;20025;-60
2023/01/26 08:47:42;;;;;;;14.70;2.83;;;;;;;;;;5074640;28;20466;-60
2023/01/26 08:50:09;;;;;;;27.33;4.82;;;;;;;;;;5062811;28;20517;-60
2023/01/26 08:52:35;;;;;;;20.17;2.92;;;;;;;;;;5058402;28;20031;-60
2023/01/26 08:55:03;;;;;;;19.85;2.75;;;;;;;;;;5065703;28;20036;-60
2023/01/26 08:57:29;;;;;;;17.95;2.63;;;;;;;;;;5064152;28;20021;-59
2023/01/26 08:59:55;;;;;;;21.70;2.70;;;;;;;;;;5066517;28;20062;-59
2023/01/26 09:02:21;;;;;;;19.80;2.70;;;;;;;;;;5062091;28;20084;-60
2023/01/26 09:04:47;;;;;;;16.38;2.88;;;;;;;;;;5066413;28;20516;-59
2023/01/26 09:07:13;;;;;;;15.23;2.53;;;;;;;;;;5058235;28;20018;-60
2023/01/26 09:09:40;;;;;;;17.92;3.17;;;;;;;;;;5063960;28;20036;-60
2023/01/26 09:12:06;;;;;;;18.20;2.85;;;;;;;;;;5069031;28;20079;-60
2023/01/26 09:14:32;;;;;;;17.67;2.78;;;;;;;;;;5071051;28;20056;-60
2023/01/26 09:16:58;;;;;;;11.88;2.30;;;;;;;;;;5063291;28;20082;-60
2023/01/26 09:19:24;;;;;;;12.40;2.42;;;;;;;;;;5060571;28;20402;-60
2023/01/26 09:21:53;;;;;;;14.35;3.47;;;;;;;;;;5069789;28;20155;-60
2023/01/26 09:24:23;;;;;;;15.40;2.60;;;;;;;;;;5070158;28;20024;-60
2023/01/26 09:26:49;;;;;;;19.27;3.42;;;;;;;;;;5070781;28;20029;-60
2023/01/26 09:29:15;;;;;;;17.25;3.15;;;;;;;;;;5073908;28;20028;-60
2023/01/26 09:31:42;;;;;;;14.25;2.35;;;;;;;;;;5070636;28;20112;-60
2023/01/26 09:34:08;;;;;;;19.35;2.72;;;;;;;;;;5069416;28;20028;-60
2023/01/26 09:36:34;;;;;;;14.45;2.50;;;;;;;;;;5070599;28;20036;-60
2023/01/26 09:39:00;;;;;;;9.25;2.58;;;;;;;;;;5069926;28;20021;-60
2023/01/26 09:41:26;;;;;;;14.57;2.92;;;;;;;;;;5070070;28;20047;-60
2023/01/26 09:43:55;;;;;;;18.10;2.40;;;;;;;;;;5063132;28;20028;-60
2023/01/26 09:46:31;;;;;;;17.63;2.65;;;;;;;;;;5067882;28;20028;-60
2023/01/26 09:49:00;;;;;;;17.02;3.05;;;;;;;;;;5069812;28;20044;-60
2023/01/26 09:51:26;;;;;;;13.98;2.75;;;;;;;;;;5064521;28;20482;-60
2023/01/26 09:53:55;;;;;;;15.60;2.30;;;;;;;;;;5061823;28;20032;-60
2023/01/26 09:56:22;;;;;;;20.63;2.92;;;;;;;;;;5070173;28;20032;-60
2023/01/26 09:58:55;;;;;;;21.77;3.05;;;;;;;;;;5070435;28;20036;-60
2023/01/26 10:01:25;;;;;;;11.90;2.50;;;;;;;;;;5070120;28;20021;-60
2023/01/26 10:04:03;;;;;;;11.13;2.53;;;;;;;;;;5069880;28;20024;-60
2023/01/26 10:06:31;;;;;;;15.00;2.72;;;;;;;;;;5070313;28;20029;-60
2023/01/26 10:09:33;;;;;;;8.35;2.42;;;;;;;;;;5060897;28;20025;-60
2023/01/26 10:12:20;;;;;;;14.60;3.58;;;;;;;;;;5062681;28;20045;-60
2023/01/26 10:15:09;;;;;;;17.40;3.30;;;;;;;;;;5064260;28;20490;-60
2023/01/26 10:17:39;;;;;;;9.27;2.38;;;;;;;;;;5058218;28;20025;-60
2023/01/26 10:20:06;;;;;;;26.60;3.70;;;;;;;;;;5066551;28;20509;-60
2023/01/26 10:22:45;;;;;;;23.85;4.10;;;;;;;;;;5070039;28;20067;-60
2023/01/26 10:25:16;;;;;;;15.88;3.33;;;;;;;;;;5064563;28;20166;-60
2023/01/26 10:27:44;;;;;;;14.13;2.10;;;;;;;;;;5072516;28;20074;-60
2023/01/26 10:30:18;;;;;;;11.52;3.47;;;;;;;;;;5067578;28;20028;-60
2023/01/26 10:32:45;;;;;;;16.58;3.60;;;;;;;;;;5071564;28;20028;-60
2023/01/26 10:35:16;;;;;;;19.10;2.90;;;;;;;;;;5072852;28;20074;-60
2023/01/26 10:37:42;;;;;;;15.85;2.88;;;;;;;;;;5081937;28;20033;-60
2023/01/26 10:40:09;;;;;;;19.98;3.22;;;;;;;;;;5079400;28;20020;-60
2023/01/26 10:42:36;;;;;;;13.55;3.88;;;;;;;;;;5068458;28;20020;-60
2023/01/26 10:45:04;;;;;;;16.38;3.15;;;;;;;;;;5069586;28;20099;-60
2023/01/26 10:47:30;;;;;;;20.15;3.72;;;;;;;;;;5069411;28;20056;-60
2023/01/26 10:50:15;;;;;;;17.45;2.95;;;;;;;;;;5069454;28;20086;-60
2023/01/26 10:52:56;;;;;;;19.65;3.40;;;;;;;;;;5059587;28;20027;-60
2023/01/26 10:55:22;;;;;;;16.48;2.72;;;;;;;;;;5067208;28;20024;-60
2023/01/26 10:57:49;;;;;;;16.63;2.67;;;;;;;;;;5072560;28;20024;-60
2023/01/26 11:00:18;;;;;;;20.42;3.33;;;;;;;;;;5060806;28;20016;-60
2023/01/26 11:02:52;;;;;;;16.58;3.22;;;;;;;;;;5063755;28;20016;-60
2023/01/26 11:05:20;;;;;;;14.30;2.63;;;;;;;;;;5058668;28;20024;-60
2023/01/26 11:07:48;;;;;;;17.77;2.97;;;;;;;;;;5060108;28;20035;-60
2023/01/26 11:10:30;;;;;;;17.58;2.88;;;;;;;;;;5068459;28;20037;-60
2023/01/26 11:13:16;;;;;;;15.02;2.67;;;;;;;;;;5066195;28;20561;-60
2023/01/26 11:15:44;;;;;;;13.05;2.10;;;;;;;;;;5059848;28;20060;-60
2023/01/26 11:18:29;;;;;;;21.25;3.58;;;;;;;;;;5064117;28;20432;-60
2023/01/26 11:20:58;;;;;;;22.17;3.88;;;;;;;;;;5062746;28;20432;-60
2023/01/26 11:23:27;;;;;;;13.40;2.45;;;;;;;;;;5071336;28;20126;-60
2023/01/26 11:26:08;;;;;;;12.77;2.17;;;;;;;;;;5066503;28;20016;-60
2023/01/26 11:28:35;;;;;;;22.70;3.22;;;;;;;;;;5061957;28;20108;-60
2023/01/26 11:31:09;;;;;;;21.17;3.83;;;;;;;;;;5074202;28;20021;-59
2023/01/26 11:33:51;;;;;;;19.50;2.90;;;;;;;;;;5064394;28;20147;-59
2023/01/26 11:36:23;;;;;;;12.13;2.45;;;;;;;;;;5071063;28;20528;-59
2023/01/26 11:39:08;;;;;;;18.67;3.28;;;;;;;;;;5070331;28;20032;-59
2023/01/26 11:41:48;;;;;;;17.45;4.07;;;;;;;;;;5055553;28;20325;-59
2023/01/26 11:44:35;;;;;;;15.50;3.60;;;;;;;;;;5063400;28;20053;-59
2023/01/26 11:47:07;;;;;;;17.92;3.15;;;;;;;;;;5068301;28;20115;-59
2023/01/26 11:49:33;;;;;;;;;;;;;;;;;;5058391;28;20029;-59
2023/01/26 11:52:11;;;;;;;11.88;2.28;;;;;;;;;;5073845;28;20015;-59
2023/01/26 11:54:57;;;;;;;13.52;2.92;;;;;;;;;;5061118;28;20799;-59
2023/01/26 11:57:27;;;;;;;18.95;2.40;;;;;;;;;;5062820;28;20039;-59
2023/01/26 11:59:59;;;;;;;12.02;2.45;;;;;;;;;;5064425;28;20508;-59
2023/01/26 12:02:31;;;;;;;9.88;2.80;;;;;;;;;;5064008;28;20115;-59
2023/01/26 12:05:02;;;;;;;11.18;2.55;;;;;;;;;;5061371;28;20506;-59
2023/01/26 12:07:50;;;;;;;20.15;2.42;;;;;;;;;;5069454;28;20024;-59
2023/01/26 12:10:18;;;;;;;17.95;2.63;;;;;;;;;;5076532;28;20036;-60
2023/01/26 12:12:49;;;;;;;22.70;2.33;;;;;;;;;;5058207;28;20416;-59
2023/01/26 12:15:28;;;;;;;12.88;2.47;;;;;;;;;;5063452;28;20477;-59
2023/01/26 12:17:57;;;;;;;16.23;2.25;;;;;;;;;;5064331;28;20028;-59
2023/01/26 12:20:39;;;;;;;9.25;2.83;;;;;;;;;;5056883;28;20104;-60
2023/01/26 12:23:10;;;;;;;14.60;2.78;;;;;;;;;;5060048;28;20021;-59
2023/01/26 12:25:37;;;;;;;16.58;2.45;;;;;;;;;;5062221;28;20056;-60
2023/01/26 12:28:24;;;;;;;21.20;3.47;;;;;;;;;;5064857;28;20039;-59
2023/01/26 12:30:57;;;;;;;8.73;1.95;;;;;;;;;;5059566;28;20039;-59
2023/01/26 12:33:23;;;;;;;23.48;3.83;;;;;;;;;;5075361;28;20024;-60
2023/01/26 12:35:58;;;;;;;20.67;2.20;;;;;;;;;;5066520;28;20037;-60
2023/01/26 12:38:28;;;;;;;12.80;2.42;;;;;;;;;;5062482;28;20493;-60
2023/01/26 12:41:02;;;;;;;12.13;2.05;;;;;;;;;;5064400;28;20127;-60
2023/01/26 12:44:00;;;;;;;10.07;2.22;;;;;;;;;;5074131;28;20072;-60
2023/01/26 12:46:28;;;;;;;11.85;2.38;;;;;;;;;;5042204;28;20032;-60
2023/01/26 12:48:57;;;;;;;14.30;2.67;;;;;;;;;;5065344;28;20383;-60
2023/01/26 12:51:27;;;;;;;16.63;2.30;;;;;;;;;;5058204;28;20074;-60
2023/01/26 12:54:11;;;;;;;7.90;2.30;;;;;;;;;;5065468;28;20029;-60
2023/01/26 12:56:40;;;;;;;14.10;2.55;;;;;;;;;;5061028;28;20063;-60
2023/01/26 12:59:12;;;;;;;16.48;2.63;;;;;;;;;;5058601;28;20040;-60
2023/01/26 13:01:40;;;;;;;20.48;2.33;;;;;;;;;;5068270;28;20364;-59
2023/01/26 13:04:08;;;;;;;11.10;2.10;;;;;;;;;;5057196;28;20025;-59
2023/01/26 13:06:35;;;;;;;9.60;2.08;;;;;;;;;;5055775;28;20075;-59
2023/01/26 13:09:18;;;;;;;11.88;2.53;;;;;;;;;;5066060;28;20122;-59
2023/01/26 13:11:44;;;;;;;14.90;3.80;;;;;;;;;;5054565;28;20418;-59
2023/01/26 13:14:29;;;;;;;14.50;3.30;;;;;;;;;;5066947;28;20033;-59
2023/01/26 13:16:56;;;;;;;18.88;2.60;;;;;;;;;;5064250;28;20020;-59
2023/01/26 13:19:37;;;;;;;17.13;2.70;;;;;;;;;;5065448;28;20512;-59
2023/01/26 13:22:03;;;;;;;19.65;2.75;;;;;;;;;;5063479;28;20073;-59
2023/01/26 13:24:30;;;;;;;22.13;2.53;;;;;;;;;;5065722;28;20067;-59
2023/01/26 13:26:56;;;;;;;13.38;2.40;;;;;;;;;;5065303;28;20502;-59
2023/01/26 13:29:31;;;;;;;10.15;2.55;;;;;;;;;;5067222;28;20024;-59
2023/01/26 13:32:00;;;;;;;19.85;2.25;;;;;;;;;;5061597;28;20021;-59
2023/01/26 13:34:26;;;;;;;15.68;2.30;;;;;;;;;;5060536;28;20430;-59
2023/01/26 13:36:55;;;;;;;13.13;2.08;;;;;;;;;;5064535;28;20144;-59
2023/01/26 13:39:37;;;;;;;16.13;2.20;;;;;;;;;;5056268;28;20097;-59
2023/01/26 13:42:15;;;;;;;12.07;1.80;;;;;;;;;;5066882;28;20040;-59
2023/01/26 13:44:44;;;;;;;9.55;1.60;;;;;;;;;;5057813;28;20149;-59
2023/01/26 13:47:33;;;;;;;16.45;2.42;;;;;;;;;;5059924;28;20029;-59
2023/01/26 13:49:59;;;;;;;9.38;2.30;;;;;;;;;;5054969;28;20033;-59
2023/01/26 13:52:26;;;;;;;9.82;1.98;;;;;;;;;;5062922;28;20100;-59
2023/01/26 13:54:53;;;;;;;14.25;2.58;;;;;;;;;;5061273;28;20078;-59
2023/01/26 13:57:21;;;;;;;9.25;2.28;;;;;;;;;;5058630;28;20032;-59
2023/01/26 13:59:50;;;;;;;13.45;2.17;;;;;;;;;;5063932;28;20078;-59
2023/01/26 14:02:24;;;;;;;10.73;2.17;;;;;;;;;;5065998;28;20040;-59
2023/01/26 14:04:52;;;;;;;10.35;2.20;;;;;;;;;;5061537;28;20038;-59
2023/01/26 14:07:18;;;;;;;13.45;2.80;;;;;;;;;;5065827;28;20021;-59
2023/01/26 14:09:49;;;;;;;6.03;1.33;;;;;;;;;;5062072;28;20040;-59
2023/01/26 14:12:22;;;;;;;7.10;1.98;;;;;;;;;;5062473;28;20016;-59
2023/01/26 14:14:49;;;;;;;13.05;1.80;;;;;;;;;;5071127;28;20025;-59
2023/01/26 14:17:25;;;;;;;10.45;2.15;;;;;;;;;;5061948;28;20029;-59
2023/01/26 14:19:51;;;;;;;13.15;1.73;;;;;;;;;;5061644;28;20448;-59
2023/01/26 14:22:17;;;;;;;11.18;2.17;;;;;;;;;;5062768;28;20021;-59
2023/01/26 14:24:47;;;;;;;10.68;1.52;;;;;;;;;;5063379;28;20028;-59
2023/01/26 14:27:25;;;;;;;8.50;1.83;;;;;;;;;;5059541;28;20410;-59
2023/01/26 14:29:51;;;;;;;7.32;1.70;;;;;;;;;;5067454;28;20456;-59
2023/01/26 14:32:17;;;;;;;15.23;1.85;;;;;;;;;;5069732;28;20057;-59
2023/01/26 14:34:54;;;;;;;6.47;1.90;;;;;;;;;;5066731;28;20047;-59
2023/01/26 14:37:20;;;;;;;7.53;1.63;;;;;;;;;;5062799;28;20131;-59
2023/01/26 14:39:46;;;;;;;13.40;2.65;;;;;;;;;;5062059;28;20086;-59
2023/01/26 14:42:14;;;;;;;12.15;2.15;;;;;;;;;;5072108;28;20115;-59
2023/01/26 14:44:40;;;;;;;8.32;2.00;;;;;;;;;;5069602;28;20029;-59
2023/01/26 14:47:15;;;;;;;12.23;2.25;;;;;;;;;;5071643;28;20021;-59
2023/01/26 14:49:45;;;;;;;9.35;1.52;;;;;;;;;;5058850;28;20368;-59
2023/01/26 14:52:22;;;;;;;15.60;2.25;;;;;;;;;;5063910;28;20024;-59
2023/01/26 14:54:50;;;;;;;8.07;1.75;;;;;;;;;;5060775;28;20031;-59
2023/01/26 14:57:19;;;;;;;11.18;2.38;;;;;;;;;;5070062;28;20115;-59
2023/01/26 14:59:48;;;;;;;10.45;1.90;;;;;;;;;;5072518;28;20441;-59
2023/01/26 15:02:21;;;;;;;7.72;2.60;;;;;;;;;;5061850;28;20034;-59
2023/01/26 15:04:59;;;;;;;8.75;1.63;;;;;;;;;;5060858;28;20056;-59
2023/01/26 15:07:31;;;;;;;14.65;1.60;;;;;;;;;;5069206;28;20063;-59
2023/01/26 15:09:57;;;;;;;13.17;1.43;;;;;;;;;;5066463;28;20062;-59
2023/01/26 15:12:23;;;;;;;4.45;1.70;;;;;;;;;;5058544;28;20048;-59
2023/01/26 15:14:51;;;;;;;10.85;1.83;;;;;;;;;;5069107;28;20028;-59
2023/01/26 15:17:26;;;;;;;15.07;3.10;;;;;;;;;;5054612;28;20033;-59
2023/01/26 15:19:52;;;;;;;14.30;2.88;;;;;;;;;;5062198;28;20052;-59
2023/01/26 15:22:20;;;;;;;12.43;2.80;;;;;;;;;;5068111;28;20017;-59
2023/01/26 15:24:47;;;;;;;13.20;3.17;;;;;;;;;;5054639;28;20102;-59
2023/01/26 15:27:13;;;;;;;7.05;2.22;;;;;;;;;;5062246;28;20028;-59
2023/01/26 15:29:40;;;;;;;11.32;2.50;;;;;;;;;;5067378;28;20031;-59
2023/01/26 15:32:06;;;;;;;10.88;2.42;;;;;;;;;;5070607;28;20040;-59